sensor_id;sensor_type;location;lat;lon;timestamp;P1;durP1;ratioP1;P2;durP2;ratioP2
20832;SDS011;56075;51.264;7.150;2023-08-30T00:01:43;10.75;;;5.85;;
20832;SDS011;56075;51.264;7.150;2023-08-30T00:04:14;13.43;;;6.03;;
20832;SDS011;56075;51.264;7.150;2023-08-30T00:06:46;10.00;;;6.13;;
20832;SDS011;56075;51.264;7.150;2023-08-30T00:09:17;10.57;;;5.80;;
20832;SDS011;56075;51.264;7.150;2023-08-30T00:11:48;11.77;;;6.10;;
20832;SDS011;56075;51.264;7.150;2023-08-30T00:14:20;14.13;;;6.40;;
20832;SDS011;56075;51.264;7.150;2023-08-30T00:16:51;10.27;;;6.53;;
20832;SDS011;56075;51.264;7.150;2023-08-30T00:19:22;12.40;;;6.75;;
20832;SDS011;56075;51.264;7.150;2023-08-30T00:21:53;11.27;;;7.20;;
20832;SDS011;56075;51.264;7.150;2023-08-30T00:24:24;12.07;;;6.45;;
20832;SDS011;56075;51.264;7.150;2023-08-30T00:26:56;12.50;;;7.30;;
20832;SDS011;56075;51.264;7.150;2023-08-30T00:29:28;12.85;;;7.25;;
20832;SDS011;56075;51.264;7.150;2023-08-30T00:31:59;14.98;;;8.15;;
20832;SDS011;56075;51.264;7.150;2023-08-30T00:34:30;16.90;;;8.65;;
20832;SDS011;56075;51.264;7.150;2023-08-30T00:37:01;14.88;;;8.23;;
20832;SDS011;56075;51.264;7.150;2023-08-30T00:39:33;14.98;;;7.78;;
20832;SDS011;56075;51.264;7.150;2023-08-30T00:42:05;12.75;;;7.70;;
20832;SDS011;56075;51.264;7.150;2023-08-30T00:44:39;13.55;;;7.88;;
20832;SDS011;56075;51.264;7.150;2023-08-30T00:47:11;15.32;;;7.43;;
20832;SDS011;56075;51.264;7.150;2023-08-30T00:49:42;16.25;;;8.55;;
20832;SDS011;56075;51.264;7.150;2023-08-30T00:52:13;14.10;;;8.13;;
20832;SDS011;56075;51.264;7.150;2023-08-30T00:54:45;20.05;;;8.85;;
20832;SDS011;56075;51.264;7.150;2023-08-30T00:57:17;17.33;;;9.15;;
20832;SDS011;56075;51.264;7.150;2023-08-30T00:59:49;16.55;;;8.85;;
20832;SDS011;56075;51.264;7.150;2023-08-30T01:02:25;16.52;;;9.80;;
20832;SDS011;56075;51.264;7.150;2023-08-30T01:04:56;20.05;;;9.98;;
20832;SDS011;56075;51.264;7.150;2023-08-30T01:07:28;16.65;;;9.57;;
20832;SDS011;56075;51.264;7.150;2023-08-30T01:09:59;15.20;;;8.98;;
20832;SDS011;56075;51.264;7.150;2023-08-30T01:12:37;17.45;;;9.15;;
20832;SDS011;56075;51.264;7.150;2023-08-30T01:15:32;17.35;;;9.52;;
20832;SDS011;56075;51.264;7.150;2023-08-30T01:18:06;16.33;;;9.48;;
20832;SDS011;56075;51.264;7.150;2023-08-30T01:20:40;17.30;;;9.20;;
20832;SDS011;56075;51.264;7.150;2023-08-30T01:26:02;17.27;;;9.57;;
20832;SDS011;56075;51.264;7.150;2023-08-30T01:28:57;16.05;;;8.93;;
20832;SDS011;56075;51.264;7.150;2023-08-30T01:31:32;19.42;;;9.75;;
20832;SDS011;56075;51.264;7.150;2023-08-30T01:34:04;16.85;;;9.40;;
20832;SDS011;56075;51.264;7.150;2023-08-30T01:36:35;16.52;;;9.40;;
20832;SDS011;56075;51.264;7.150;2023-08-30T01:39:07;16.30;;;9.52;;
20832;SDS011;56075;51.264;7.150;2023-08-30T01:41:40;18.33;;;9.43;;
20832;SDS011;56075;51.264;7.150;2023-08-30T01:44:12;15.50;;;9.20;;
20832;SDS011;56075;51.264;7.150;2023-08-30T01:46:46;17.10;;;9.02;;
20832;SDS011;56075;51.264;7.150;2023-08-30T01:49:18;18.63;;;9.13;;
20832;SDS011;56075;51.264;7.150;2023-08-30T01:51:49;18.02;;;9.57;;
20832;SDS011;56075;51.264;7.150;2023-08-30T01:54:21;17.60;;;9.30;;
20832;SDS011;56075;51.264;7.150;2023-08-30T01:56:53;17.50;;;9.65;;
20832;SDS011;56075;51.264;7.150;2023-08-30T01:59:24;16.05;;;9.00;;
20832;SDS011;56075;51.264;7.150;2023-08-30T02:01:56;17.23;;;9.48;;
20832;SDS011;56075;51.264;7.150;2023-08-30T02:04:27;16.90;;;8.95;;
20832;SDS011;56075;51.264;7.150;2023-08-30T02:07:03;18.33;;;9.98;;
20832;SDS011;56075;51.264;7.150;2023-08-30T02:10:21;19.17;;;9.80;;
20832;SDS011;56075;51.264;7.150;2023-08-30T02:12:39;18.52;;;9.57;;
20832;SDS011;56075;51.264;7.150;2023-08-30T02:15:18;19.25;;;10.52;;
20832;SDS011;56075;51.264;7.150;2023-08-30T02:17:52;20.67;;;11.88;;
20832;SDS011;56075;51.264;7.150;2023-08-30T02:20:24;20.42;;;10.95;;
20832;SDS011;56075;51.264;7.150;2023-08-30T02:22:59;21.90;;;10.20;;
20832;SDS011;56075;51.264;7.150;2023-08-30T02:25:30;20.30;;;10.90;;
20832;SDS011;56075;51.264;7.150;2023-08-30T02:28:01;18.88;;;10.23;;
20832;SDS011;56075;51.264;7.150;2023-08-30T02:30:33;28.65;;;12.60;;
20832;SDS011;56075;51.264;7.150;2023-08-30T02:33:04;25.17;;;12.98;;
20832;SDS011;56075;51.264;7.150;2023-08-30T02:35:35;20.55;;;11.95;;
20832;SDS011;56075;51.264;7.150;2023-08-30T02:38:08;20.58;;;10.52;;
20832;SDS011;56075;51.264;7.150;2023-08-30T02:40:39;23.77;;;12.40;;
20832;SDS011;56075;51.264;7.150;2023-08-30T02:43:12;24.15;;;11.68;;
20832;SDS011;56075;51.264;7.150;2023-08-30T02:45:43;21.92;;;12.40;;
20832;SDS011;56075;51.264;7.150;2023-08-30T02:48:16;26.70;;;14.15;;
20832;SDS011;56075;51.264;7.150;2023-08-30T02:50:48;23.83;;;12.55;;
20832;SDS011;56075;51.264;7.150;2023-08-30T02:53:19;28.30;;;13.50;;
20832;SDS011;56075;51.264;7.150;2023-08-30T02:55:51;31.33;;;15.25;;
20832;SDS011;56075;51.264;7.150;2023-08-30T02:58:26;34.10;;;17.25;;
20832;SDS011;56075;51.264;7.150;2023-08-30T03:01:02;31.67;;;15.90;;
20832;SDS011;56075;51.264;7.150;2023-08-30T03:03:33;29.80;;;14.18;;
20832;SDS011;56075;51.264;7.150;2023-08-30T03:06:05;31.48;;;15.45;;
20832;SDS011;56075;51.264;7.150;2023-08-30T03:08:36;28.05;;;14.27;;
20832;SDS011;56075;51.264;7.150;2023-08-30T03:11:08;28.40;;;15.23;;
20832;SDS011;56075;51.264;7.150;2023-08-30T03:13:40;34.78;;;15.85;;
20832;SDS011;56075;51.264;7.150;2023-08-30T03:16:14;27.70;;;14.45;;
20832;SDS011;56075;51.264;7.150;2023-08-30T03:18:46;37.72;;;16.52;;
20832;SDS011;56075;51.264;7.150;2023-08-30T03:21:18;34.60;;;16.73;;
20832;SDS011;56075;51.264;7.150;2023-08-30T03:23:49;34.58;;;17.35;;
20832;SDS011;56075;51.264;7.150;2023-08-30T03:26:20;36.72;;;16.92;;
20832;SDS011;56075;51.264;7.150;2023-08-30T03:28:51;31.90;;;16.35;;
20832;SDS011;56075;51.264;7.150;2023-08-30T03:31:23;38.17;;;15.95;;
20832;SDS011;56075;51.264;7.150;2023-08-30T03:33:55;34.05;;;15.82;;
20832;SDS011;56075;51.264;7.150;2023-08-30T03:36:26;39.15;;;16.98;;
20832;SDS011;56075;51.264;7.150;2023-08-30T03:38:57;36.30;;;16.52;;
20832;SDS011;56075;51.264;7.150;2023-08-30T03:41:28;33.80;;;16.17;;
20832;SDS011;56075;51.264;7.150;2023-08-30T03:44:00;32.72;;;16.73;;
20832;SDS011;56075;51.264;7.150;2023-08-30T03:46:31;30.70;;;15.38;;
20832;SDS011;56075;51.264;7.150;2023-08-30T03:49:03;30.80;;;16.42;;
20832;SDS011;56075;51.264;7.150;2023-08-30T03:51:35;33.85;;;16.15;;
20832;SDS011;56075;51.264;7.150;2023-08-30T03:54:07;34.25;;;17.00;;
20832;SDS011;56075;51.264;7.150;2023-08-30T03:56:42;31.80;;;16.13;;
20832;SDS011;56075;51.264;7.150;2023-08-30T03:59:14;30.58;;;15.75;;
20832;SDS011;56075;51.264;7.150;2023-08-30T04:01:45;35.80;;;16.20;;
20832;SDS011;56075;51.264;7.150;2023-08-30T04:04:17;31.73;;;16.60;;
20832;SDS011;56075;51.264;7.150;2023-08-30T04:06:48;37.95;;;17.52;;
20832;SDS011;56075;51.264;7.150;2023-08-30T04:09:20;37.38;;;18.90;;
20832;SDS011;56075;51.264;7.150;2023-08-30T04:11:51;49.83;;;21.35;;
20832;SDS011;56075;51.264;7.150;2023-08-30T04:14:23;48.88;;;21.65;;
20832;SDS011;56075;51.264;7.150;2023-08-30T04:16:54;47.22;;;20.65;;
20832;SDS011;56075;51.264;7.150;2023-08-30T04:19:25;45.03;;;20.92;;
20832;SDS011;56075;51.264;7.150;2023-08-30T04:21:56;43.67;;;21.42;;
20832;SDS011;56075;51.264;7.150;2023-08-30T04:24:28;43.05;;;20.63;;
20832;SDS011;56075;51.264;7.150;2023-08-30T04:26:59;46.38;;;21.90;;
20832;SDS011;56075;51.264;7.150;2023-08-30T04:29:30;43.33;;;19.60;;
20832;SDS011;56075;51.264;7.150;2023-08-30T04:32:01;41.75;;;19.58;;
20832;SDS011;56075;51.264;7.150;2023-08-30T04:34:32;46.60;;;19.55;;
20832;SDS011;56075;51.264;7.150;2023-08-30T04:37:04;36.22;;;17.50;;
20832;SDS011;56075;51.264;7.150;2023-08-30T04:39:35;40.83;;;18.15;;
20832;SDS011;56075;51.264;7.150;2023-08-30T04:42:07;45.05;;;18.02;;
20832;SDS011;56075;51.264;7.150;2023-08-30T04:44:39;37.72;;;17.40;;
20832;SDS011;56075;51.264;7.150;2023-08-30T04:47:12;40.40;;;18.88;;
20832;SDS011;56075;51.264;7.150;2023-08-30T04:49:43;33.95;;;16.92;;
20832;SDS011;56075;51.264;7.150;2023-08-30T04:52:15;35.60;;;17.48;;
20832;SDS011;56075;51.264;7.150;2023-08-30T04:54:47;39.25;;;17.38;;
20832;SDS011;56075;51.264;7.150;2023-08-30T04:57:22;40.00;;;18.65;;
20832;SDS011;56075;51.264;7.150;2023-08-30T04:59:54;38.22;;;18.00;;
20832;SDS011;56075;51.264;7.150;2023-08-30T05:02:26;41.00;;;19.52;;
20832;SDS011;56075;51.264;7.150;2023-08-30T05:05:07;42.63;;;19.00;;
20832;SDS011;56075;51.264;7.150;2023-08-30T05:07:38;38.03;;;19.55;;
20832;SDS011;56075;51.264;7.150;2023-08-30T05:10:10;41.13;;;18.70;;
20832;SDS011;56075;51.264;7.150;2023-08-30T05:12:43;37.47;;;17.52;;
20832;SDS011;56075;51.264;7.150;2023-08-30T05:15:18;39.00;;;17.98;;
20832;SDS011;56075;51.264;7.150;2023-08-30T05:17:51;45.97;;;18.55;;
20832;SDS011;56075;51.264;7.150;2023-08-30T05:20:22;38.00;;;18.67;;
20832;SDS011;56075;51.264;7.150;2023-08-30T05:22:54;41.47;;;19.73;;
20832;SDS011;56075;51.264;7.150;2023-08-30T05:25:25;40.42;;;19.02;;
20832;SDS011;56075;51.264;7.150;2023-08-30T05:27:57;38.88;;;18.58;;
20832;SDS011;56075;51.264;7.150;2023-08-30T05:30:28;44.88;;;20.08;;
20832;SDS011;56075;51.264;7.150;2023-08-30T05:33:02;42.63;;;19.45;;
20832;SDS011;56075;51.264;7.150;2023-08-30T05:35:52;38.40;;;18.38;;
20832;SDS011;56075;51.264;7.150;2023-08-30T05:38:44;39.88;;;19.35;;
20832;SDS011;56075;51.264;7.150;2023-08-30T05:41:27;39.80;;;19.10;;
20832;SDS011;56075;51.264;7.150;2023-08-30T05:43:59;42.25;;;19.02;;
20832;SDS011;56075;51.264;7.150;2023-08-30T05:46:31;42.35;;;18.80;;
20832;SDS011;56075;51.264;7.150;2023-08-30T05:49:02;45.17;;;19.98;;
20832;SDS011;56075;51.264;7.150;2023-08-30T05:51:34;46.88;;;20.77;;
20832;SDS011;56075;51.264;7.150;2023-08-30T05:54:05;42.60;;;20.05;;
20832;SDS011;56075;51.264;7.150;2023-08-30T05:56:37;42.75;;;19.95;;
20832;SDS011;56075;51.264;7.150;2023-08-30T05:59:09;47.05;;;20.55;;
20832;SDS011;56075;51.264;7.150;2023-08-30T06:01:40;41.30;;;19.55;;
20832;SDS011;56075;51.264;7.150;2023-08-30T06:04:12;44.90;;;19.48;;
20832;SDS011;56075;51.264;7.150;2023-08-30T06:06:44;44.10;;;19.85;;
20832;SDS011;56075;51.264;7.150;2023-08-30T06:09:15;42.20;;;19.88;;
20832;SDS011;56075;51.264;7.150;2023-08-30T06:11:47;44.25;;;21.20;;
20832;SDS011;56075;51.264;7.150;2023-08-30T06:14:19;45.75;;;21.80;;
20832;SDS011;56075;51.264;7.150;2023-08-30T06:16:50;45.00;;;21.52;;
20832;SDS011;56075;51.264;7.150;2023-08-30T06:19:22;50.03;;;22.70;;
20832;SDS011;56075;51.264;7.150;2023-08-30T06:21:54;49.35;;;24.92;;
20832;SDS011;56075;51.264;7.150;2023-08-30T06:24:25;47.33;;;23.48;;
20832;SDS011;56075;51.264;7.150;2023-08-30T06:26:57;48.05;;;21.88;;
20832;SDS011;56075;51.264;7.150;2023-08-30T06:29:28;45.22;;;23.13;;
20832;SDS011;56075;51.264;7.150;2023-08-30T06:31:59;44.35;;;21.25;;
20832;SDS011;56075;51.264;7.150;2023-08-30T06:34:30;47.85;;;22.08;;
20832;SDS011;56075;51.264;7.150;2023-08-30T06:37:02;42.90;;;21.95;;
20832;SDS011;56075;51.264;7.150;2023-08-30T06:39:34;44.38;;;21.48;;
20832;SDS011;56075;51.264;7.150;2023-08-30T06:42:06;39.80;;;19.65;;
20832;SDS011;56075;51.264;7.150;2023-08-30T06:44:38;42.25;;;19.30;;
20832;SDS011;56075;51.264;7.150;2023-08-30T06:47:11;35.05;;;18.40;;
20832;SDS011;56075;51.264;7.150;2023-08-30T06:49:42;32.45;;;16.48;;
20832;SDS011;56075;51.264;7.150;2023-08-30T06:52:13;37.00;;;17.65;;
20832;SDS011;56075;51.264;7.150;2023-08-30T06:54:45;32.05;;;16.48;;
20832;SDS011;56075;51.264;7.150;2023-08-30T06:57:16;32.22;;;16.50;;
20832;SDS011;56075;51.264;7.150;2023-08-30T06:59:47;28.42;;;14.45;;
20832;SDS011;56075;51.264;7.150;2023-08-30T07:02:18;29.15;;;14.52;;
20832;SDS011;56075;51.264;7.150;2023-08-30T07:04:50;23.35;;;13.55;;
20832;SDS011;56075;51.264;7.150;2023-08-30T07:07:21;22.83;;;13.52;;
20832;SDS011;56075;51.264;7.150;2023-08-30T07:09:52;23.45;;;13.10;;
20832;SDS011;56075;51.264;7.150;2023-08-30T07:12:23;24.15;;;12.75;;
20832;SDS011;56075;51.264;7.150;2023-08-30T07:14:55;22.98;;;12.23;;
20832;SDS011;56075;51.264;7.150;2023-08-30T07:17:27;21.65;;;12.43;;
20832;SDS011;56075;51.264;7.150;2023-08-30T07:19:58;23.77;;;11.98;;
20832;SDS011;56075;51.264;7.150;2023-08-30T07:22:29;19.50;;;11.60;;
20832;SDS011;56075;51.264;7.150;2023-08-30T07:25:00;22.45;;;10.73;;
20832;SDS011;56075;51.264;7.150;2023-08-30T07:27:33;18.95;;;10.48;;
20832;SDS011;56075;51.264;7.150;2023-08-30T07:30:05;18.50;;;9.55;;
20832;SDS011;56075;51.264;7.150;2023-08-30T07:32:36;19.98;;;9.15;;
20832;SDS011;56075;51.264;7.150;2023-08-30T07:35:08;18.83;;;8.63;;
20832;SDS011;56075;51.264;7.150;2023-08-30T07:37:40;16.75;;;8.18;;
20832;SDS011;56075;51.264;7.150;2023-08-30T07:40:11;17.27;;;7.80;;
20832;SDS011;56075;51.264;7.150;2023-08-30T07:42:43;16.35;;;8.43;;
20832;SDS011;56075;51.264;7.150;2023-08-30T07:45:14;15.02;;;7.68;;
20832;SDS011;56075;51.264;7.150;2023-08-30T07:47:45;16.63;;;7.40;;
20832;SDS011;56075;51.264;7.150;2023-08-30T07:50:16;11.93;;;7.07;;
20832;SDS011;56075;51.264;7.150;2023-08-30T07:52:48;12.02;;;6.70;;
20832;SDS011;56075;51.264;7.150;2023-08-30T07:55:19;12.25;;;6.88;;
20832;SDS011;56075;51.264;7.150;2023-08-30T07:57:50;13.00;;;6.85;;
20832;SDS011;56075;51.264;7.150;2023-08-30T08:00:21;12.45;;;6.40;;
20832;SDS011;56075;51.264;7.150;2023-08-30T08:02:52;12.85;;;6.50;;
20832;SDS011;56075;51.264;7.150;2023-08-30T08:05:23;10.00;;;6.30;;
20832;SDS011;56075;51.264;7.150;2023-08-30T08:07:58;12.15;;;6.30;;
20832;SDS011;56075;51.264;7.150;2023-08-30T08:10:34;11.50;;;6.03;;
20832;SDS011;56075;51.264;7.150;2023-08-30T08:13:05;10.55;;;5.50;;
20832;SDS011;56075;51.264;7.150;2023-08-30T08:15:36;8.00;;;5.20;;
20832;SDS011;56075;51.264;7.150;2023-08-30T08:18:07;7.85;;;4.60;;
20832;SDS011;56075;51.264;7.150;2023-08-30T08:20:38;10.95;;;4.97;;
20832;SDS011;56075;51.264;7.150;2023-08-30T08:23:10;8.60;;;4.32;;
20832;SDS011;56075;51.264;7.150;2023-08-30T08:25:41;12.45;;;4.95;;
20832;SDS011;56075;51.264;7.150;2023-08-30T08:28:12;8.02;;;4.68;;
20832;SDS011;56075;51.264;7.150;2023-08-30T08:30:43;9.30;;;4.45;;
20832;SDS011;56075;51.264;7.150;2023-08-30T08:33:15;8.45;;;4.40;;
20832;SDS011;56075;51.264;7.150;2023-08-30T08:35:48;10.15;;;4.95;;
20832;SDS011;56075;51.264;7.150;2023-08-30T08:38:19;6.93;;;4.18;;
20832;SDS011;56075;51.264;7.150;2023-08-30T08:40:51;7.90;;;4.20;;
20832;SDS011;56075;51.264;7.150;2023-08-30T08:43:34;14.10;;;4.25;;
20832;SDS011;56075;51.264;7.150;2023-08-30T08:46:07;11.20;;;4.35;;
20832;SDS011;56075;51.264;7.150;2023-08-30T08:48:42;8.50;;;4.30;;
20832;SDS011;56075;51.264;7.150;2023-08-30T08:51:16;7.22;;;3.92;;
20832;SDS011;56075;51.264;7.150;2023-08-30T08:53:48;9.50;;;4.20;;
20832;SDS011;56075;51.264;7.150;2023-08-30T08:56:19;7.38;;;4.15;;
20832;SDS011;56075;51.264;7.150;2023-08-30T08:58:51;9.30;;;4.10;;
20832;SDS011;56075;51.264;7.150;2023-08-30T09:01:23;8.70;;;4.30;;
20832;SDS011;56075;51.264;7.150;2023-08-30T09:03:55;9.57;;;4.40;;
20832;SDS011;56075;51.264;7.150;2023-08-30T09:06:26;7.63;;;3.70;;
20832;SDS011;56075;51.264;7.150;2023-08-30T09:09:00;6.32;;;3.80;;
20832;SDS011;56075;51.264;7.150;2023-08-30T09:11:32;8.18;;;4.30;;
20832;SDS011;56075;51.264;7.150;2023-08-30T09:14:03;8.10;;;3.60;;
20832;SDS011;56075;51.264;7.150;2023-08-30T09:16:34;10.38;;;4.18;;
20832;SDS011;56075;51.264;7.150;2023-08-30T09:19:05;7.82;;;3.60;;
20832;SDS011;56075;51.264;7.150;2023-08-30T09:21:38;10.10;;;3.78;;
20832;SDS011;56075;51.264;7.150;2023-08-30T09:24:09;7.40;;;3.42;;
20832;SDS011;56075;51.264;7.150;2023-08-30T09:26:46;7.47;;;4.40;;
20832;SDS011;56075;51.264;7.150;2023-08-30T09:29:19;8.77;;;3.85;;
20832;SDS011;56075;51.264;7.150;2023-08-30T09:31:51;8.40;;;3.83;;
20832;SDS011;56075;51.264;7.150;2023-08-30T09:34:24;7.53;;;4.20;;
20832;SDS011;56075;51.264;7.150;2023-08-30T09:36:56;6.57;;;4.07;;
20832;SDS011;56075;51.264;7.150;2023-08-30T09:39:29;8.70;;;3.97;;
20832;SDS011;56075;51.264;7.150;2023-08-30T09:42:01;7.15;;;4.32;;
20832;SDS011;56075;51.264;7.150;2023-08-30T09:44:32;7.82;;;4.22;;
20832;SDS011;56075;51.264;7.150;2023-08-30T09:47:03;8.15;;;4.10;;
20832;SDS011;56075;51.264;7.150;2023-08-30T09:49:40;8.50;;;4.35;;
20832;SDS011;56075;51.264;7.150;2023-08-30T09:52:18;10.80;;;5.40;;
20832;SDS011;56075;51.264;7.150;2023-08-30T09:54:53;9.63;;;4.68;;
20832;SDS011;56075;51.264;7.150;2023-08-30T09:57:26;8.93;;;4.78;;
20832;SDS011;56075;51.264;7.150;2023-08-30T09:59:58;7.60;;;4.55;;
20832;SDS011;56075;51.264;7.150;2023-08-30T10:02:31;6.80;;;4.13;;
20832;SDS011;56075;51.264;7.150;2023-08-30T10:05:04;8.65;;;4.43;;
20832;SDS011;56075;51.264;7.150;2023-08-30T10:07:36;10.95;;;4.70;;
20832;SDS011;56075;51.264;7.150;2023-08-30T10:10:08;9.32;;;4.13;;
20832;SDS011;56075;51.264;7.150;2023-08-30T10:12:40;9.30;;;4.13;;
20832;SDS011;56075;51.264;7.150;2023-08-30T10:15:16;9.32;;;5.30;;
20832;SDS011;56075;51.264;7.150;2023-08-30T10:17:51;9.63;;;5.75;;
20832;SDS011;56075;51.264;7.150;2023-08-30T10:20:24;9.30;;;5.72;;
20832;SDS011;56075;51.264;7.150;2023-08-30T10:22:58;10.80;;;6.28;;
20832;SDS011;56075;51.264;7.150;2023-08-30T10:25:30;10.80;;;5.95;;
20832;SDS011;56075;51.264;7.150;2023-08-30T10:28:03;9.20;;;5.72;;
20832;SDS011;56075;51.264;7.150;2023-08-30T10:30:35;11.30;;;5.38;;
20832;SDS011;56075;51.264;7.150;2023-08-30T10:33:12;11.98;;;5.80;;
20832;SDS011;56075;51.264;7.150;2023-08-30T10:35:48;8.40;;;5.15;;
20832;SDS011;56075;51.264;7.150;2023-08-30T10:38:26;7.70;;;4.80;;
20832;SDS011;56075;51.264;7.150;2023-08-30T10:41:08;7.70;;;4.35;;
20832;SDS011;56075;51.264;7.150;2023-08-30T10:43:40;8.27;;;4.72;;
20832;SDS011;56075;51.264;7.150;2023-08-30T10:46:11;8.27;;;4.50;;
20832;SDS011;56075;51.264;7.150;2023-08-30T10:48:42;8.27;;;4.70;;
20832;SDS011;56075;51.264;7.150;2023-08-30T10:51:21;8.88;;;5.05;;
20832;SDS011;56075;51.264;7.150;2023-08-30T10:54:15;12.88;;;5.93;;
20832;SDS011;56075;51.264;7.150;2023-08-30T10:59:21;12.23;;;6.85;;
20832;SDS011;56075;51.264;7.150;2023-08-30T11:01:53;11.75;;;6.30;;
20832;SDS011;56075;51.264;7.150;2023-08-30T11:04:26;10.05;;;6.60;;
20832;SDS011;56075;51.264;7.150;2023-08-30T11:06:57;18.80;;;8.02;;
20832;SDS011;56075;51.264;7.150;2023-08-30T11:09:29;12.68;;;7.22;;
20832;SDS011;56075;51.264;7.150;2023-08-30T11:12:04;15.23;;;7.35;;
20832;SDS011;56075;51.264;7.150;2023-08-30T11:14:35;13.20;;;7.55;;
20832;SDS011;56075;51.264;7.150;2023-08-30T11:17:11;13.23;;;7.00;;
20832;SDS011;56075;51.264;7.150;2023-08-30T11:19:42;18.33;;;8.10;;
20832;SDS011;56075;51.264;7.150;2023-08-30T11:22:14;16.73;;;8.00;;
20832;SDS011;56075;51.264;7.150;2023-08-30T11:24:47;16.48;;;8.38;;
20832;SDS011;56075;51.264;7.150;2023-08-30T11:27:19;21.48;;;9.18;;
20832;SDS011;56075;51.264;7.150;2023-08-30T11:29:51;18.83;;;9.88;;
20832;SDS011;56075;51.264;7.150;2023-08-30T11:32:22;18.33;;;8.98;;
20832;SDS011;56075;51.264;7.150;2023-08-30T11:34:56;20.83;;;8.57;;
20832;SDS011;56075;51.264;7.150;2023-08-30T11:37:28;18.98;;;9.35;;
20832;SDS011;56075;51.264;7.150;2023-08-30T11:40:01;20.33;;;9.75;;
20832;SDS011;56075;51.264;7.150;2023-08-30T11:42:34;16.80;;;8.05;;
20832;SDS011;56075;51.264;7.150;2023-08-30T11:45:05;13.48;;;6.22;;
20832;SDS011;56075;51.264;7.150;2023-08-30T11:47:38;8.38;;;4.40;;
20832;SDS011;56075;51.264;7.150;2023-08-30T11:50:09;6.10;;;3.65;;
20832;SDS011;56075;51.264;7.150;2023-08-30T11:52:42;7.65;;;3.70;;
20832;SDS011;56075;51.264;7.150;2023-08-30T11:55:14;6.43;;;3.35;;
20832;SDS011;56075;51.264;7.150;2023-08-30T11:57:47;6.95;;;3.38;;
20832;SDS011;56075;51.264;7.150;2023-08-30T12:00:20;6.97;;;4.07;;
20832;SDS011;56075;51.264;7.150;2023-08-30T12:02:51;6.93;;;3.90;;
20832;SDS011;56075;51.264;7.150;2023-08-30T12:05:22;9.48;;;4.30;;
20832;SDS011;56075;51.264;7.150;2023-08-30T12:07:53;8.95;;;4.10;;
20832;SDS011;56075;51.264;7.150;2023-08-30T12:10:25;6.75;;;4.32;;
20832;SDS011;56075;51.264;7.150;2023-08-30T12:12:56;9.82;;;4.10;;
20832;SDS011;56075;51.264;7.150;2023-08-30T12:15:27;9.93;;;4.55;;
20832;SDS011;56075;51.264;7.150;2023-08-30T12:18:06;7.25;;;4.28;;
20832;SDS011;56075;51.264;7.150;2023-08-30T12:20:38;8.82;;;4.78;;
20832;SDS011;56075;51.264;7.150;2023-08-30T12:23:18;9.80;;;4.45;;
20832;SDS011;56075;51.264;7.150;2023-08-30T12:26:08;6.68;;;4.18;;
20832;SDS011;56075;51.264;7.150;2023-08-30T12:28:40;9.90;;;4.90;;
20832;SDS011;56075;51.264;7.150;2023-08-30T12:31:14;12.18;;;5.68;;
20832;SDS011;56075;51.264;7.150;2023-08-30T12:33:45;9.93;;;4.82;;
20832;SDS011;56075;51.264;7.150;2023-08-30T12:36:17;9.63;;;5.18;;
20832;SDS011;56075;51.264;7.150;2023-08-30T12:38:48;10.30;;;5.22;;
20832;SDS011;56075;51.264;7.150;2023-08-30T12:41:19;9.88;;;5.30;;
20832;SDS011;56075;51.264;7.150;2023-08-30T12:43:52;11.90;;;5.28;;
20832;SDS011;56075;51.264;7.150;2023-08-30T12:46:23;12.38;;;5.90;;
20832;SDS011;56075;51.264;7.150;2023-08-30T12:48:54;10.40;;;5.45;;
20832;SDS011;56075;51.264;7.150;2023-08-30T12:51:25;9.65;;;5.75;;
20832;SDS011;56075;51.264;7.150;2023-08-30T12:53:56;11.60;;;5.53;;
20832;SDS011;56075;51.264;7.150;2023-08-30T12:56:27;8.65;;;4.90;;
20832;SDS011;56075;51.264;7.150;2023-08-30T12:58:58;9.13;;;5.05;;
20832;SDS011;56075;51.264;7.150;2023-08-30T13:01:30;11.55;;;5.60;;
20832;SDS011;56075;51.264;7.150;2023-08-30T13:04:01;9.10;;;4.28;;
20832;SDS011;56075;51.264;7.150;2023-08-30T13:06:34;7.82;;;4.07;;
20832;SDS011;56075;51.264;7.150;2023-08-30T13:09:05;7.15;;;3.88;;
20832;SDS011;56075;51.264;7.150;2023-08-30T13:11:36;8.65;;;4.30;;
20832;SDS011;56075;51.264;7.150;2023-08-30T13:14:07;6.97;;;4.60;;
20832;SDS011;56075;51.264;7.150;2023-08-30T13:16:38;9.45;;;5.75;;
20832;SDS011;56075;51.264;7.150;2023-08-30T13:19:09;11.88;;;6.97;;
20832;SDS011;56075;51.264;7.150;2023-08-30T13:21:40;12.98;;;7.43;;
20832;SDS011;56075;51.264;7.150;2023-08-30T13:24:13;10.77;;;7.00;;
20832;SDS011;56075;51.264;7.150;2023-08-30T13:26:44;12.02;;;7.38;;
20832;SDS011;56075;51.264;7.150;2023-08-30T13:29:16;11.50;;;7.00;;
20832;SDS011;56075;51.264;7.150;2023-08-30T13:31:48;9.30;;;6.20;;
20832;SDS011;56075;51.264;7.150;2023-08-30T13:34:19;11.57;;;6.68;;
20832;SDS011;56075;51.264;7.150;2023-08-30T13:36:50;14.43;;;7.32;;
20832;SDS011;56075;51.264;7.150;2023-08-30T13:39:21;14.07;;;7.30;;
20832;SDS011;56075;51.264;7.150;2023-08-30T13:41:53;11.10;;;6.75;;
20832;SDS011;56075;51.264;7.150;2023-08-30T13:44:24;12.50;;;6.55;;
20832;SDS011;56075;51.264;7.150;2023-08-30T13:46:55;10.25;;;5.90;;
20832;SDS011;56075;51.264;7.150;2023-08-30T13:49:26;10.00;;;5.47;;
20832;SDS011;56075;51.264;7.150;2023-08-30T13:51:57;9.82;;;5.95;;
20832;SDS011;56075;51.264;7.150;2023-08-30T13:54:29;7.82;;;5.05;;
20832;SDS011;56075;51.264;7.150;2023-08-30T13:57:00;9.55;;;4.90;;
20832;SDS011;56075;51.264;7.150;2023-08-30T13:59:31;10.52;;;5.32;;
20832;SDS011;56075;51.264;7.150;2023-08-30T14:02:03;8.32;;;4.50;;
20832;SDS011;56075;51.264;7.150;2023-08-30T14:04:34;7.10;;;4.00;;
20832;SDS011;56075;51.264;7.150;2023-08-30T14:07:08;6.43;;;3.83;;
20832;SDS011;56075;51.264;7.150;2023-08-30T14:09:39;7.57;;;3.90;;
20832;SDS011;56075;51.264;7.150;2023-08-30T14:12:11;7.00;;;4.00;;
20832;SDS011;56075;51.264;7.150;2023-08-30T14:14:42;6.63;;;4.00;;
20832;SDS011;56075;51.264;7.150;2023-08-30T14:17:13;6.50;;;3.40;;
20832;SDS011;56075;51.264;7.150;2023-08-30T14:19:44;8.48;;;3.70;;
20832;SDS011;56075;51.264;7.150;2023-08-30T14:22:15;6.75;;;3.33;;
20832;SDS011;56075;51.264;7.150;2023-08-30T14:24:46;4.75;;;2.67;;
20832;SDS011;56075;51.264;7.150;2023-08-30T14:27:17;7.03;;;3.63;;
20832;SDS011;56075;51.264;7.150;2023-08-30T14:29:50;5.97;;;3.67;;
20832;SDS011;56075;51.264;7.150;2023-08-30T14:32:22;5.35;;;3.50;;
20832;SDS011;56075;51.264;7.150;2023-08-30T14:34:53;7.90;;;3.67;;
20832;SDS011;56075;51.264;7.150;2023-08-30T14:37:24;5.28;;;3.10;;
20832;SDS011;56075;51.264;7.150;2023-08-30T14:39:56;5.88;;;3.22;;
20832;SDS011;56075;51.264;7.150;2023-08-30T14:42:27;6.30;;;3.92;;
20832;SDS011;56075;51.264;7.150;2023-08-30T14:44:58;5.75;;;3.50;;
20832;SDS011;56075;51.264;7.150;2023-08-30T14:47:30;5.78;;;3.90;;
20832;SDS011;56075;51.264;7.150;2023-08-30T14:50:01;6.82;;;3.90;;
20832;SDS011;56075;51.264;7.150;2023-08-30T14:52:33;9.75;;;4.30;;
20832;SDS011;56075;51.264;7.150;2023-08-30T14:55:04;8.45;;;4.70;;
20832;SDS011;56075;51.264;7.150;2023-08-30T14:57:36;7.80;;;4.57;;
20832;SDS011;56075;51.264;7.150;2023-08-30T15:00:08;10.60;;;4.88;;
20832;SDS011;56075;51.264;7.150;2023-08-30T15:02:39;8.80;;;4.95;;
20832;SDS011;56075;51.264;7.150;2023-08-30T15:05:10;8.15;;;4.15;;
20832;SDS011;56075;51.264;7.150;2023-08-30T15:07:41;6.82;;;3.70;;
20832;SDS011;56075;51.264;7.150;2023-08-30T15:10:12;6.47;;;3.83;;